sensor_id;sensor_type;location;lat;lon;timestamp;P1;durP1;ratioP1;P2;durP2;ratioP2
48524;SDS011;34316;51.514;-0.178;2022-10-16T00:01:53;15.55;;;8.77;;
48524;SDS011;34316;51.514;-0.178;2022-10-16T00:03:55;13.25;;;8.50;;
48524;SDS011;34316;51.514;-0.178;2022-10-16T00:05:59;13.45;;;9.73;;
48524;SDS011;34316;51.514;-0.178;2022-10-16T00:08:01;12.30;;;8.90;;
48524;SDS011;34316;51.514;-0.178;2022-10-16T00:10:04;12.35;;;8.90;;
48524;SDS011;34316;51.514;-0.178;2022-10-16T00:12:05;14.90;;;8.75;;
48524;SDS011;34316;51.514;-0.178;2022-10-16T00:14:09;14.20;;;8.30;;
48524;SDS011;34316;51.514;-0.178;2022-10-16T00:16:14;12.52;;;8.82;;
48524;SDS011;34316;51.514;-0.178;2022-10-16T00:18:16;12.20;;;9.20;;
48524;SDS011;34316;51.514;-0.178;2022-10-16T00:20:17;12.75;;;8.82;;
48524;SDS011;34316;51.514;-0.178;2022-10-16T00:22:19;13.23;;;9.85;;
48524;SDS011;34316;51.514;-0.178;2022-10-16T00:24:21;14.98;;;9.82;;
48524;SDS011;34316;51.514;-0.178;2022-10-16T00:26:22;14.60;;;10.15;;
48524;SDS011;34316;51.514;-0.178;2022-10-16T00:28:24;14.50;;;9.70;;
48524;SDS011;34316;51.514;-0.178;2022-10-16T00:30:26;14.48;;;10.48;;
48524;SDS011;34316;51.514;-0.178;2022-10-16T00:32:29;11.95;;;9.50;;
48524;SDS011;34316;51.514;-0.178;2022-10-16T00:34:30;13.95;;;9.70;;
48524;SDS011;34316;51.514;-0.178;2022-10-16T00:36:32;13.00;;;9.73;;
48524;SDS011;34316;51.514;-0.178;2022-10-16T00:38:34;14.15;;;9.45;;
48524;SDS011;34316;51.514;-0.178;2022-10-16T00:40:36;15.40;;;9.45;;
48524;SDS011;34316;51.514;-0.178;2022-10-16T00:42:37;12.10;;;9.20;;
48524;SDS011;34316;51.514;-0.178;2022-10-16T00:44:46;12.75;;;8.95;;
48524;SDS011;34316;51.514;-0.178;2022-10-16T00:46:53;13.43;;;9.57;;
48524;SDS011;34316;51.514;-0.178;2022-10-16T00:48:57;12.18;;;9.98;;
48524;SDS011;34316;51.514;-0.178;2022-10-16T00:51:02;13.73;;;10.02;;
48524;SDS011;34316;51.514;-0.178;2022-10-16T00:53:04;13.18;;;9.70;;
48524;SDS011;34316;51.514;-0.178;2022-10-16T00:55:05;12.57;;;9.38;;
48524;SDS011;34316;51.514;-0.178;2022-10-16T00:57:08;13.25;;;9.70;;
48524;SDS011;34316;51.514;-0.178;2022-10-16T00:59:22;13.73;;;9.25;;
48524;SDS011;34316;51.514;-0.178;2022-10-16T01:01:26;12.80;;;10.02;;
48524;SDS011;34316;51.514;-0.178;2022-10-16T01:03:32;15.45;;;10.32;;
48524;SDS011;34316;51.514;-0.178;2022-10-16T01:05:39;16.30;;;10.05;;
48524;SDS011;34316;51.514;-0.178;2022-10-16T01:14:51;15.20;;;10.10;;
48524;SDS011;34316;51.514;-0.178;2022-10-16T01:16:58;14.32;;;10.10;;
48524;SDS011;34316;51.514;-0.178;2022-10-16T01:19:26;16.60;;;9.90;;
48524;SDS011;34316;51.514;-0.178;2022-10-16T01:21:39;16.20;;;9.63;;
48524;SDS011;34316;51.514;-0.178;2022-10-16T01:28:38;13.63;;;9.77;;
48524;SDS011;34316;51.514;-0.178;2022-10-16T01:30:43;13.38;;;9.20;;
48524;SDS011;34316;51.514;-0.178;2022-10-16T01:32:47;15.30;;;9.55;;
48524;SDS011;34316;51.514;-0.178;2022-10-16T01:34:59;12.35;;;9.25;;
48524;SDS011;34316;51.514;-0.178;2022-10-16T01:37:06;14.90;;;10.00;;
48524;SDS011;34316;51.514;-0.178;2022-10-16T01:39:11;11.98;;;8.68;;
48524;SDS011;34316;51.514;-0.178;2022-10-16T01:41:18;12.57;;;8.90;;
48524;SDS011;34316;51.514;-0.178;2022-10-16T01:45:59;13.48;;;9.07;;
48524;SDS011;34316;51.514;-0.178;2022-10-16T01:48:02;12.90;;;9.45;;
48524;SDS011;34316;51.514;-0.178;2022-10-16T01:50:07;15.02;;;9.88;;
48524;SDS011;34316;51.514;-0.178;2022-10-16T01:52:10;13.55;;;9.73;;
48524;SDS011;34316;51.514;-0.178;2022-10-16T01:54:17;13.10;;;9.15;;
48524;SDS011;34316;51.514;-0.178;2022-10-16T01:56:21;13.90;;;9.93;;
48524;SDS011;34316;51.514;-0.178;2022-10-16T01:58:24;14.77;;;10.23;;
48524;SDS011;34316;51.514;-0.178;2022-10-16T02:00:27;15.23;;;10.43;;
48524;SDS011;34316;51.514;-0.178;2022-10-16T02:02:29;13.82;;;9.63;;
48524;SDS011;34316;51.514;-0.178;2022-10-16T02:04:36;14.73;;;10.88;;
48524;SDS011;34316;51.514;-0.178;2022-10-16T02:06:40;14.75;;;10.18;;
48524;SDS011;34316;51.514;-0.178;2022-10-16T02:08:42;16.20;;;10.35;;
48524;SDS011;34316;51.514;-0.178;2022-10-16T02:10:45;14.77;;;10.10;;
48524;SDS011;34316;51.514;-0.178;2022-10-16T02:12:50;15.07;;;9.90;;
48524;SDS011;34316;51.514;-0.178;2022-10-16T02:14:57;14.05;;;9.50;;
48524;SDS011;34316;51.514;-0.178;2022-10-16T02:16:58;11.90;;;8.65;;
48524;SDS011;34316;51.514;-0.178;2022-10-16T02:19:00;11.60;;;8.73;;
48524;SDS011;34316;51.514;-0.178;2022-10-16T02:21:05;15.18;;;8.95;;
48524;SDS011;34316;51.514;-0.178;2022-10-16T02:23:11;13.57;;;8.43;;
48524;SDS011;34316;51.514;-0.178;2022-10-16T02:29:34;13.65;;;9.30;;
48524;SDS011;34316;51.514;-0.178;2022-10-16T02:31:41;16.35;;;9.15;;
48524;SDS011;34316;51.514;-0.178;2022-10-16T02:33:45;14.73;;;8.35;;
48524;SDS011;34316;51.514;-0.178;2022-10-16T02:35:47;16.42;;;8.45;;
48524;SDS011;34316;51.514;-0.178;2022-10-16T02:37:49;12.57;;;8.43;;
48524;SDS011;34316;51.514;-0.178;2022-10-16T02:39:51;12.27;;;8.85;;
48524;SDS011;34316;51.514;-0.178;2022-10-16T02:41:54;13.13;;;9.48;;
48524;SDS011;34316;51.514;-0.178;2022-10-16T02:43:56;14.52;;;9.15;;
48524;SDS011;34316;51.514;-0.178;2022-10-16T02:45:58;13.30;;;9.40;;
48524;SDS011;34316;51.514;-0.178;2022-10-16T02:48:00;12.05;;;8.40;;
48524;SDS011;34316;51.514;-0.178;2022-10-16T02:50:02;10.35;;;8.27;;
48524;SDS011;34316;51.514;-0.178;2022-10-16T02:52:04;10.48;;;8.13;;
48524;SDS011;34316;51.514;-0.178;2022-10-16T02:54:06;11.65;;;8.55;;
48524;SDS011;34316;51.514;-0.178;2022-10-16T02:56:07;22.13;;;9.18;;
48524;SDS011;34316;51.514;-0.178;2022-10-16T02:58:09;13.40;;;8.20;;
48524;SDS011;34316;51.514;-0.178;2022-10-16T03:00:12;12.63;;;8.85;;
48524;SDS011;34316;51.514;-0.178;2022-10-16T03:04:16;17.27;;;11.13;;
48524;SDS011;34316;51.514;-0.178;2022-10-16T03:06:18;14.63;;;10.00;;
48524;SDS011;34316;51.514;-0.178;2022-10-16T03:08:20;18.13;;;11.93;;
48524;SDS011;34316;51.514;-0.178;2022-10-16T03:10:24;17.45;;;11.63;;
48524;SDS011;34316;51.514;-0.178;2022-10-16T03:12:27;16.67;;;11.43;;
48524;SDS011;34316;51.514;-0.178;2022-10-16T03:14:28;22.73;;;13.45;;
48524;SDS011;34316;51.514;-0.178;2022-10-16T03:16:30;19.90;;;12.98;;
48524;SDS011;34316;51.514;-0.178;2022-10-16T03:18:32;20.38;;;11.95;;
48524;SDS011;34316;51.514;-0.178;2022-10-16T03:20:33;20.25;;;11.63;;
48524;SDS011;34316;51.514;-0.178;2022-10-16T03:22:35;16.10;;;11.60;;
48524;SDS011;34316;51.514;-0.178;2022-10-16T03:24:37;15.82;;;10.60;;
48524;SDS011;34316;51.514;-0.178;2022-10-16T03:26:38;18.75;;;11.82;;
48524;SDS011;34316;51.514;-0.178;2022-10-16T03:28:40;14.48;;;10.48;;
48524;SDS011;34316;51.514;-0.178;2022-10-16T03:30:43;17.15;;;11.10;;
48524;SDS011;34316;51.514;-0.178;2022-10-16T03:32:45;20.20;;;11.00;;
48524;SDS011;34316;51.514;-0.178;2022-10-16T03:34:46;17.42;;;10.70;;
48524;SDS011;34316;51.514;-0.178;2022-10-16T03:36:48;17.92;;;10.18;;
48524;SDS011;34316;51.514;-0.178;2022-10-16T03:38:50;18.08;;;10.90;;
48524;SDS011;34316;51.514;-0.178;2022-10-16T03:40:52;16.60;;;10.13;;
48524;SDS011;34316;51.514;-0.178;2022-10-16T03:42:53;18.02;;;10.82;;
48524;SDS011;34316;51.514;-0.178;2022-10-16T03:44:59;16.85;;;10.48;;
48524;SDS011;34316;51.514;-0.178;2022-10-16T03:47:00;15.35;;;9.63;;
48524;SDS011;34316;51.514;-0.178;2022-10-16T03:49:02;11.45;;;9.20;;
48524;SDS011;34316;51.514;-0.178;2022-10-16T03:51:09;11.73;;;8.55;;
48524;SDS011;34316;51.514;-0.178;2022-10-16T03:53:10;13.60;;;9.23;;
48524;SDS011;34316;51.514;-0.178;2022-10-16T03:55:12;12.27;;;8.68;;
48524;SDS011;34316;51.514;-0.178;2022-10-16T03:57:13;12.75;;;7.95;;
48524;SDS011;34316;51.514;-0.178;2022-10-16T03:59:16;13.45;;;9.07;;
48524;SDS011;34316;51.514;-0.178;2022-10-16T04:01:17;13.60;;;8.93;;
48524;SDS011;34316;51.514;-0.178;2022-10-16T04:03:19;12.85;;;8.90;;
48524;SDS011;34316;51.514;-0.178;2022-10-16T04:05:22;14.57;;;9.05;;
48524;SDS011;34316;51.514;-0.178;2022-10-16T04:07:24;14.27;;;9.02;;
48524;SDS011;34316;51.514;-0.178;2022-10-16T04:09:26;13.38;;;9.75;;
48524;SDS011;34316;51.514;-0.178;2022-10-16T04:11:28;15.93;;;10.10;;
48524;SDS011;34316;51.514;-0.178;2022-10-16T04:13:29;15.35;;;10.82;;
48524;SDS011;34316;51.514;-0.178;2022-10-16T04:15:31;14.35;;;10.13;;
48524;SDS011;34316;51.514;-0.178;2022-10-16T04:17:33;16.02;;;9.18;;
48524;SDS011;34316;51.514;-0.178;2022-10-16T04:19:34;16.08;;;9.10;;
48524;SDS011;34316;51.514;-0.178;2022-10-16T04:21:36;14.70;;;9.13;;
48524;SDS011;34316;51.514;-0.178;2022-10-16T04:23:38;13.57;;;10.07;;
48524;SDS011;34316;51.514;-0.178;2022-10-16T04:25:39;17.73;;;9.63;;
48524;SDS011;34316;51.514;-0.178;2022-10-16T04:27:41;15.80;;;10.20;;
48524;SDS011;34316;51.514;-0.178;2022-10-16T04:29:46;17.50;;;9.85;;
48524;SDS011;34316;51.514;-0.178;2022-10-16T04:31:48;13.77;;;9.23;;
48524;SDS011;34316;51.514;-0.178;2022-10-16T04:33:49;16.00;;;8.93;;
48524;SDS011;34316;51.514;-0.178;2022-10-16T04:35:58;13.27;;;8.85;;
48524;SDS011;34316;51.514;-0.178;2022-10-16T04:38:00;11.52;;;9.05;;
48524;SDS011;34316;51.514;-0.178;2022-10-16T04:40:02;17.25;;;9.20;;
48524;SDS011;34316;51.514;-0.178;2022-10-16T04:42:04;13.85;;;9.07;;
48524;SDS011;34316;51.514;-0.178;2022-10-16T04:44:05;12.80;;;9.30;;
48524;SDS011;34316;51.514;-0.178;2022-10-16T04:46:07;12.30;;;9.18;;
48524;SDS011;34316;51.514;-0.178;2022-10-16T04:48:08;16.85;;;9.20;;
48524;SDS011;34316;51.514;-0.178;2022-10-16T04:50:10;14.55;;;9.55;;
48524;SDS011;34316;51.514;-0.178;2022-10-16T04:52:12;12.75;;;9.57;;
48524;SDS011;34316;51.514;-0.178;2022-10-16T04:54:13;16.05;;;9.45;;
48524;SDS011;34316;51.514;-0.178;2022-10-16T04:56:15;13.82;;;9.38;;
48524;SDS011;34316;51.514;-0.178;2022-10-16T04:58:17;17.88;;;9.77;;
48524;SDS011;34316;51.514;-0.178;2022-10-16T05:00:18;13.13;;;9.82;;
48524;SDS011;34316;51.514;-0.178;2022-10-16T05:02:20;14.30;;;9.20;;
48524;SDS011;34316;51.514;-0.178;2022-10-16T05:04:22;24.08;;;9.95;;
48524;SDS011;34316;51.514;-0.178;2022-10-16T05:06:24;21.02;;;9.70;;
48524;SDS011;34316;51.514;-0.178;2022-10-16T05:08:26;20.58;;;9.82;;
48524;SDS011;34316;51.514;-0.178;2022-10-16T05:10:27;23.05;;;9.80;;
48524;SDS011;34316;51.514;-0.178;2022-10-16T05:12:29;16.63;;;8.52;;
48524;SDS011;34316;51.514;-0.178;2022-10-16T05:14:31;18.58;;;9.68;;
48524;SDS011;34316;51.514;-0.178;2022-10-16T05:16:33;13.38;;;9.18;;
48524;SDS011;34316;51.514;-0.178;2022-10-16T05:18:34;15.55;;;9.77;;
48524;SDS011;34316;51.514;-0.178;2022-10-16T05:20:36;15.30;;;9.07;;
48524;SDS011;34316;51.514;-0.178;2022-10-16T05:22:38;15.40;;;9.55;;
48524;SDS011;34316;51.514;-0.178;2022-10-16T05:24:39;13.75;;;9.13;;
48524;SDS011;34316;51.514;-0.178;2022-10-16T05:26:41;16.20;;;10.93;;
48524;SDS011;34316;51.514;-0.178;2022-10-16T05:28:43;19.77;;;14.73;;
48524;SDS011;34316;51.514;-0.178;2022-10-16T05:30:45;17.42;;;14.88;;
48524;SDS011;34316;51.514;-0.178;2022-10-16T05:32:49;23.50;;;17.05;;
48524;SDS011;34316;51.514;-0.178;2022-10-16T05:34:52;18.50;;;16.58;;
48524;SDS011;34316;51.514;-0.178;2022-10-16T05:36:54;18.20;;;16.17;;
48524;SDS011;34316;51.514;-0.178;2022-10-16T05:38:55;21.88;;;16.05;;
48524;SDS011;34316;51.514;-0.178;2022-10-16T05:40:57;16.42;;;12.82;;
48524;SDS011;34316;51.514;-0.178;2022-10-16T05:42:59;23.17;;;16.20;;
48524;SDS011;34316;51.514;-0.178;2022-10-16T05:45:01;17.98;;;16.08;;
48524;SDS011;34316;51.514;-0.178;2022-10-16T05:47:03;20.98;;;14.02;;
48524;SDS011;34316;51.514;-0.178;2022-10-16T05:49:05;17.95;;;10.55;;
48524;SDS011;34316;51.514;-0.178;2022-10-16T05:51:08;15.32;;;11.20;;
48524;SDS011;34316;51.514;-0.178;2022-10-16T05:53:11;16.05;;;11.57;;
48524;SDS011;34316;51.514;-0.178;2022-10-16T05:55:13;19.17;;;10.93;;
48524;SDS011;34316;51.514;-0.178;2022-10-16T05:57:15;16.23;;;10.85;;
48524;SDS011;34316;51.514;-0.178;2022-10-16T05:59:16;16.90;;;10.45;;
48524;SDS011;34316;51.514;-0.178;2022-10-16T06:01:18;18.90;;;11.07;;
48524;SDS011;34316;51.514;-0.178;2022-10-16T06:05:23;19.05;;;10.43;;
48524;SDS011;34316;51.514;-0.178;2022-10-16T06:07:25;18.63;;;10.98;;
48524;SDS011;34316;51.514;-0.178;2022-10-16T06:09:27;17.05;;;10.75;;
48524;SDS011;34316;51.514;-0.178;2022-10-16T06:11:30;19.48;;;9.60;;
48524;SDS011;34316;51.514;-0.178;2022-10-16T06:13:33;14.98;;;10.35;;
48524;SDS011;34316;51.514;-0.178;2022-10-16T06:15:35;16.13;;;9.88;;
48524;SDS011;34316;51.514;-0.178;2022-10-16T06:17:36;14.10;;;9.85;;
48524;SDS011;34316;51.514;-0.178;2022-10-16T06:19:38;14.18;;;10.20;;
48524;SDS011;34316;51.514;-0.178;2022-10-16T06:21:40;14.00;;;9.82;;
48524;SDS011;34316;51.514;-0.178;2022-10-16T06:23:42;13.10;;;9.43;;
48524;SDS011;34316;51.514;-0.178;2022-10-16T06:25:44;15.30;;;11.75;;
48524;SDS011;34316;51.514;-0.178;2022-10-16T06:27:45;13.48;;;11.38;;
48524;SDS011;34316;51.514;-0.178;2022-10-16T06:29:47;15.50;;;10.68;;
48524;SDS011;34316;51.514;-0.178;2022-10-16T06:31:48;13.57;;;9.68;;
48524;SDS011;34316;51.514;-0.178;2022-10-16T06:33:50;17.30;;;9.68;;
48524;SDS011;34316;51.514;-0.178;2022-10-16T06:35:52;15.68;;;9.75;;
48524;SDS011;34316;51.514;-0.178;2022-10-16T06:37:54;16.05;;;9.60;;
48524;SDS011;34316;51.514;-0.178;2022-10-16T06:39:56;18.20;;;9.68;;
48524;SDS011;34316;51.514;-0.178;2022-10-16T06:41:57;17.67;;;10.48;;
48524;SDS011;34316;51.514;-0.178;2022-10-16T06:44:07;13.57;;;10.25;;
48524;SDS011;34316;51.514;-0.178;2022-10-16T06:46:09;14.10;;;9.85;;
48524;SDS011;34316;51.514;-0.178;2022-10-16T06:48:12;14.23;;;10.35;;
48524;SDS011;34316;51.514;-0.178;2022-10-16T06:50:13;14.10;;;9.88;;
48524;SDS011;34316;51.514;-0.178;2022-10-16T06:52:15;16.88;;;9.43;;
48524;SDS011;34316;51.514;-0.178;2022-10-16T06:54:17;14.80;;;9.25;;
48524;SDS011;34316;51.514;-0.178;2022-10-16T06:56:23;14.48;;;9.10;;
48524;SDS011;34316;51.514;-0.178;2022-10-16T06:58:26;20.25;;;9.43;;
48524;SDS011;34316;51.514;-0.178;2022-10-16T07:00:27;13.95;;;10.77;;
48524;SDS011;34316;51.514;-0.178;2022-10-16T07:02:29;13.32;;;10.55;;
48524;SDS011;34316;51.514;-0.178;2022-10-16T07:04:31;17.63;;;12.02;;
48524;SDS011;34316;51.514;-0.178;2022-10-16T07:06:33;17.10;;;12.10;;
48524;SDS011;34316;51.514;-0.178;2022-10-16T07:08:35;18.08;;;13.38;;
48524;SDS011;34316;51.514;-0.178;2022-10-16T07:10:39;22.60;;;16.02;;
48524;SDS011;34316;51.514;-0.178;2022-10-16T07:12:41;18.15;;;13.55;;
48524;SDS011;34316;51.514;-0.178;2022-10-16T07:14:43;15.98;;;11.80;;
48524;SDS011;34316;51.514;-0.178;2022-10-16T07:16:45;14.68;;;10.63;;
48524;SDS011;34316;51.514;-0.178;2022-10-16T07:18:47;13.77;;;9.55;;
48524;SDS011;34316;51.514;-0.178;2022-10-16T07:20:50;13.27;;;10.18;;
48524;SDS011;34316;51.514;-0.178;2022-10-16T07:22:52;15.13;;;10.18;;
48524;SDS011;34316;51.514;-0.178;2022-10-16T07:24:53;32.67;;;11.05;;
48524;SDS011;34316;51.514;-0.178;2022-10-16T07:26:55;18.05;;;10.90;;
48524;SDS011;34316;51.514;-0.178;2022-10-16T07:28:57;15.35;;;11.32;;
48524;SDS011;34316;51.514;-0.178;2022-10-16T07:31:06;15.77;;;11.52;;
48524;SDS011;34316;51.514;-0.178;2022-10-16T07:33:09;17.30;;;10.85;;
48524;SDS011;34316;51.514;-0.178;2022-10-16T07:35:11;19.90;;;11.60;;
48524;SDS011;34316;51.514;-0.178;2022-10-16T07:37:13;16.52;;;10.80;;
48524;SDS011;34316;51.514;-0.178;2022-10-16T07:39:14;16.95;;;11.40;;
48524;SDS011;34316;51.514;-0.178;2022-10-16T07:41:33;19.88;;;12.10;;
48524;SDS011;34316;51.514;-0.178;2022-10-16T07:43:37;16.38;;;11.55;;
48524;SDS011;34316;51.514;-0.178;2022-10-16T07:45:46;14.70;;;11.02;;
48524;SDS011;34316;51.514;-0.178;2022-10-16T07:47:50;19.17;;;11.75;;
48524;SDS011;34316;51.514;-0.178;2022-10-16T07:49:51;19.15;;;12.20;;
48524;SDS011;34316;51.514;-0.178;2022-10-16T07:51:53;17.77;;;12.13;;
48524;SDS011;34316;51.514;-0.178;2022-10-16T07:53:55;16.60;;;12.25;;
48524;SDS011;34316;51.514;-0.178;2022-10-16T07:56:15;19.10;;;12.52;;
48524;SDS011;34316;51.514;-0.178;2022-10-16T07:58:17;19.15;;;12.65;;
48524;SDS011;34316;51.514;-0.178;2022-10-16T08:00:19;19.77;;;13.80;;
48524;SDS011;34316;51.514;-0.178;2022-10-16T08:02:20;22.63;;;13.00;;
48524;SDS011;34316;51.514;-0.178;2022-10-16T08:04:22;17.90;;;12.27;;
48524;SDS011;34316;51.514;-0.178;2022-10-16T08:06:23;20.67;;;12.52;;
48524;SDS011;34316;51.514;-0.178;2022-10-16T08:08:28;15.70;;;11.77;;
48524;SDS011;34316;51.514;-0.178;2022-10-16T08:10:30;17.75;;;10.93;;
48524;SDS011;34316;51.514;-0.178;2022-10-16T08:12:32;15.13;;;11.77;;
48524;SDS011;34316;51.514;-0.178;2022-10-16T08:14:34;17.15;;;11.15;;
48524;SDS011;34316;51.514;-0.178;2022-10-16T08:16:36;16.33;;;10.98;;
48524;SDS011;34316;51.514;-0.178;2022-10-16T08:18:38;15.70;;;11.63;;
48524;SDS011;34316;51.514;-0.178;2022-10-16T08:20:40;14.60;;;10.40;;
48524;SDS011;34316;51.514;-0.178;2022-10-16T08:22:43;15.18;;;9.50;;
48524;SDS011;34316;51.514;-0.178;2022-10-16T08:24:45;20.05;;;9.50;;
48524;SDS011;34316;51.514;-0.178;2022-10-16T08:26:46;12.43;;;8.18;;
48524;SDS011;34316;51.514;-0.178;2022-10-16T08:28:51;13.43;;;8.25;;
48524;SDS011;34316;51.514;-0.178;2022-10-16T08:30:53;8.90;;;7.30;;
48524;SDS011;34316;51.514;-0.178;2022-10-16T08:32:55;15.18;;;8.02;;
48524;SDS011;34316;51.514;-0.178;2022-10-16T08:34:57;14.02;;;7.18;;
48524;SDS011;34316;51.514;-0.178;2022-10-16T08:36:59;11.38;;;7.43;;
48524;SDS011;34316;51.514;-0.178;2022-10-16T08:39:00;9.05;;;7.10;;
48524;SDS011;34316;51.514;-0.178;2022-10-16T08:41:22;16.02;;;8.02;;
48524;SDS011;34316;51.514;-0.178;2022-10-16T08:48:21;10.05;;;6.45;;
48524;SDS011;34316;51.514;-0.178;2022-10-16T08:50:30;9.93;;;5.95;;
48524;SDS011;34316;51.514;-0.178;2022-10-16T08:52:34;10.07;;;5.95;;
48524;SDS011;34316;51.514;-0.178;2022-10-16T08:54:43;7.70;;;5.75;;
48524;SDS011;34316;51.514;-0.178;2022-10-16T08:56:47;10.68;;;5.50;;
48524;SDS011;34316;51.514;-0.178;2022-10-16T08:58:49;10.45;;;5.80;;
48524;SDS011;34316;51.514;-0.178;2022-10-16T09:01:00;11.88;;;4.85;;
48524;SDS011;34316;51.514;-0.178;2022-10-16T09:16:46;6.80;;;3.60;;
48524;SDS011;34316;51.514;-0.178;2022-10-16T09:23:18;6.15;;;4.00;;
48524;SDS011;34316;51.514;-0.178;2022-10-16T09:25:23;8.73;;;4.15;;
48524;SDS011;34316;51.514;-0.178;2022-10-16T09:27:25;7.90;;;4.03;;
48524;SDS011;34316;51.514;-0.178;2022-10-16T09:29:27;5.85;;;4.32;;
48524;SDS011;34316;51.514;-0.178;2022-10-16T09:31:29;7.57;;;4.10;;
48524;SDS011;34316;51.514;-0.178;2022-10-16T09:33:35;4.88;;;3.65;;
48524;SDS011;34316;51.514;-0.178;2022-10-16T09:35:39;5.70;;;3.80;;
48524;SDS011;34316;51.514;-0.178;2022-10-16T09:39:48;9.38;;;3.45;;
48524;SDS011;34316;51.514;-0.178;2022-10-16T09:41:51;6.13;;;3.65;;
48524;SDS011;34316;51.514;-0.178;2022-10-16T09:43:56;6.47;;;4.03;;
48524;SDS011;34316;51.514;-0.178;2022-10-16T09:46:01;4.78;;;3.90;;
48524;SDS011;34316;51.514;-0.178;2022-10-16T09:48:11;7.57;;;3.95;;
48524;SDS011;34316;51.514;-0.178;2022-10-16T09:52:29;7.00;;;3.30;;
48524;SDS011;34316;51.514;-0.178;2022-10-16T09:54:31;6.22;;;3.47;;
48524;SDS011;34316;51.514;-0.178;2022-10-16T09:56:34;7.07;;;3.75;;
48524;SDS011;34316;51.514;-0.178;2022-10-16T09:58:37;5.80;;;3.60;;
48524;SDS011;34316;51.514;-0.178;2022-10-16T10:00:41;4.93;;;3.38;;
48524;SDS011;34316;51.514;-0.178;2022-10-16T10:02:43;9.55;;;3.83;;
48524;SDS011;34316;51.514;-0.178;2022-10-16T10:04:50;5.45;;;3.35;;
48524;SDS011;34316;51.514;-0.178;2022-10-16T10:06:55;6.60;;;4.10;;
48524;SDS011;34316;51.514;-0.178;2022-10-16T10:09:44;8.25;;;3.97;;
48524;SDS011;34316;51.514;-0.178;2022-10-16T10:12:28;4.50;;;3.42;;
48524;SDS011;34316;51.514;-0.178;2022-10-16T10:14:18;6.60;;;3.67;;
48524;SDS011;34316;51.514;-0.178;2022-10-16T10:16:24;5.97;;;3.55;;
48524;SDS011;34316;51.514;-0.178;2022-10-16T10:18:26;5.13;;;3.20;;
48524;SDS011;34316;51.514;-0.178;2022-10-16T10:24:59;7.40;;;3.83;;
48524;SDS011;34316;51.514;-0.178;2022-10-16T10:27:15;6.22;;;3.75;;
48524;SDS011;34316;51.514;-0.178;2022-10-16T10:31:42;6.57;;;3.00;;
48524;SDS011;34316;51.514;-0.178;2022-10-16T10:36:39;4.53;;;3.20;;
48524;SDS011;34316;51.514;-0.178;2022-10-16T10:41:11;5.78;;;2.97;;
48524;SDS011;34316;51.514;-0.178;2022-10-16T10:45:31;5.15;;;3.42;;
48524;SDS011;34316;51.514;-0.178;2022-10-16T10:52:53;4.93;;;2.78;;
48524;SDS011;34316;51.514;-0.178;2022-10-16T10:57:02;6.68;;;3.42;;
48524;SDS011;34316;51.514;-0.178;2022-10-16T11:01:41;5.82;;;3.80;;
48524;SDS011;34316;51.514;-0.178;2022-10-16T11:03:57;5.47;;;3.42;;
48524;SDS011;34316;51.514;-0.178;2022-10-16T11:06:12;7.75;;;3.35;;
48524;SDS011;34316;51.514;-0.178;2022-10-16T11:08:20;7.05;;;3.10;;
48524;SDS011;34316;51.514;-0.178;2022-10-16T11:12:57;4.57;;;3.60;;
48524;SDS011;34316;51.514;-0.178;2022-10-16T11:15:14;5.32;;;3.40;;
48524;SDS011;34316;51.514;-0.178;2022-10-16T11:17:19;5.40;;;3.35;;
48524;SDS011;34316;51.514;-0.178;2022-10-16T11:21:54;5.38;;;2.95;;
48524;SDS011;34316;51.514;-0.178;2022-10-16T11:26:24;4.30;;;2.97;;
48524;SDS011;34316;51.514;-0.178;2022-10-16T11:28:37;8.23;;;3.78;;
48524;SDS011;34316;51.514;-0.178;2022-10-16T11:30:49;6.70;;;3.08;;
48524;SDS011;34316;51.514;-0.178;2022-10-16T11:35:12;7.45;;;3.05;;
48524;SDS011;34316;51.514;-0.178;2022-10-16T11:37:21;6.75;;;3.22;;
48524;SDS011;34316;51.514;-0.178;2022-10-16T11:39:27;6.53;;;2.90;;
48524;SDS011;34316;51.514;-0.178;2022-10-16T11:43:46;3.92;;;2.70;;
48524;SDS011;34316;51.514;-0.178;2022-10-16T11:45:57;6.43;;;3.40;;
48524;SDS011;34316;51.514;-0.178;2022-10-16T11:48:12;7.22;;;3.30;;
48524;SDS011;34316;51.514;-0.178;2022-10-16T11:50:28;4.70;;;2.72;;
48524;SDS011;34316;51.514;-0.178;2022-10-16T11:52:44;4.82;;;2.70;;
48524;SDS011;34316;51.514;-0.178;2022-10-16T11:56:55;5.32;;;2.72;;
48524;SDS011;34316;51.514;-0.178;2022-10-16T11:59:00;6.97;;;2.83;;
48524;SDS011;34316;51.514;-0.178;2022-10-16T12:01:10;8.57;;;6.35;;
48524;SDS011;34316;51.514;-0.178;2022-10-16T12:03:29;6.80;;;3.33;;
48524;SDS011;34316;51.514;-0.178;2022-10-16T12:08:03;4.38;;;2.85;;
48524;SDS011;34316;51.514;-0.178;2022-10-16T12:10:20;4.80;;;2.80;;
48524;SDS011;34316;51.514;-0.178;2022-10-16T12:14:38;4.90;;;3.20;;
48524;SDS011;34316;51.514;-0.178;2022-10-16T12:17:02;3.83;;;2.72;;
48524;SDS011;34316;51.514;-0.178;2022-10-16T12:19:14;6.80;;;3.28;;
48524;SDS011;34316;51.514;-0.178;2022-10-16T12:21:17;8.32;;;2.90;;
48524;SDS011;34316;51.514;-0.178;2022-10-16T12:23:20;4.95;;;3.00;;
48524;SDS011;34316;51.514;-0.178;2022-10-16T12:27:32;5.75;;;2.72;;
48524;SDS011;34316;51.514;-0.178;2022-10-16T12:29:38;4.82;;;3.13;;
48524;SDS011;34316;51.514;-0.178;2022-10-16T12:31:45;6.70;;;3.30;;
48524;SDS011;34316;51.514;-0.178;2022-10-16T12:33:58;4.65;;;2.70;;
48524;SDS011;34316;51.514;-0.178;2022-10-16T12:36:16;7.25;;;2.80;;
48524;SDS011;34316;51.514;-0.178;2022-10-16T12:38:44;4.75;;;3.05;;
48524;SDS011;34316;51.514;-0.178;2022-10-16T12:41:08;4.50;;;3.00;;
48524;SDS011;34316;51.514;-0.178;2022-10-16T12:43:56;6.50;;;3.00;;
48524;SDS011;34316;51.514;-0.178;2022-10-16T12:45:44;8.65;;;3.33;;
48524;SDS011;34316;51.514;-0.178;2022-10-16T12:47:48;3.97;;;2.70;;
48524;SDS011;34316;51.514;-0.178;2022-10-16T12:49:52;5.00;;;3.10;;
48524;SDS011;34316;51.514;-0.178;2022-10-16T12:51:55;5.10;;;3.10;;
48524;SDS011;34316;51.514;-0.178;2022-10-16T12:56:19;6.07;;;3.13;;
48524;SDS011;34316;51.514;-0.178;2022-10-16T12:58:45;4.93;;;3.00;;
48524;SDS011;34316;51.514;-0.178;2022-10-16T13:01:06;6.40;;;2.85;;
48524;SDS011;34316;51.514;-0.178;2022-10-16T13:07:48;5.55;;;2.90;;
48524;SDS011;34316;51.514;-0.178;2022-10-16T13:19:48;13.75;;;3.67;;
48524;SDS011;34316;51.514;-0.178;2022-10-16T13:22:06;4.88;;;2.85;;
48524;SDS011;34316;51.514;-0.178;2022-10-16T13:27:07;12.07;;;3.42;;
48524;SDS011;34316;51.514;-0.178;2022-10-16T13:29:16;4.93;;;2.95;;
48524;SDS011;34316;51.514;-0.178;2022-10-16T13:31:21;8.55;;;3.33;;
48524;SDS011;34316;51.514;-0.178;2022-10-16T13:35:36;6.32;;;3.00;;
48524;SDS011;34316;51.514;-0.178;2022-10-16T13:37:38;4.82;;;3.03;;
48524;SDS011;34316;51.514;-0.178;2022-10-16T13:39:40;5.30;;;2.75;;
48524;SDS011;34316;51.514;-0.178;2022-10-16T13:41:41;6.80;;;3.20;;
48524;SDS011;34316;51.514;-0.178;2022-10-16T13:48:06;5.47;;;3.03;;
48524;SDS011;34316;51.514;-0.178;2022-10-16T13:50:14;5.05;;;3.00;;
48524;SDS011;34316;51.514;-0.178;2022-10-16T13:52:19;6.53;;;2.92;;
48524;SDS011;34316;51.514;-0.178;2022-10-16T13:54:21;10.65;;;3.10;;
48524;SDS011;34316;51.514;-0.178;2022-10-16T13:56:28;3.67;;;2.73;;
48524;SDS011;34316;51.514;-0.178;2022-10-16T13:58:31;4.85;;;2.60;;
48524;SDS011;34316;51.514;-0.178;2022-10-16T14:00:33;9.65;;;3.10;;
48524;SDS011;34316;51.514;-0.178;2022-10-16T14:02:37;5.57;;;3.22;;
48524;SDS011;34316;51.514;-0.178;2022-10-16T14:04:40;5.22;;;3.10;;
48524;SDS011;34316;51.514;-0.178;2022-10-16T14:06:43;5.85;;;3.03;;
48524;SDS011;34316;51.514;-0.178;2022-10-16T14:08:46;3.72;;;2.67;;
48524;SDS011;34316;51.514;-0.178;2022-10-16T14:10:52;3.63;;;2.35;;